Time;durP1;ratioP1;P1;durP2;ratioP2;P2;SDS_P1;SDS_P2;PMS_P1;PMS_P2;Temp;Humidity;BMP_temperature;BMP_pressure;BME280_temperature;BME280_humidity;BME280_pressure;Samples;Min_cycle;Max_cycle;Signal;HPM_P1;HPM_P2
2021/11/26 00:01:08;;;;;;;4.30;2.53;;;28.30;90.80;;;;;;5064690;28;20213;-50
2021/11/26 00:03:35;;;;;;;11.95;3.63;;;28.20;90.60;;;;;;5064157;28;20217;-55
2021/11/26 00:06:02;;;;;;;7.53;2.83;;;28.20;90.70;;;;;;5065764;28;20021;-50
2021/11/26 00:08:29;;;;;;;8.30;3.10;;;28.10;90.70;;;;;;5064988;28;20228;-47
2021/11/26 00:10:56;;;;;;;7.40;3.40;;;28.10;90.70;;;;;;5065414;28;20041;-46
2021/11/26 00:13:29;;;;;;;11.07;3.22;;;28.00;90.70;;;;;;5065481;28;20021;-46
2021/11/26 00:16:03;;;;;;;5.88;2.75;;;28.00;90.80;;;;;;5065775;28;20028;-47
2021/11/26 00:18:31;;;;;;;11.00;2.80;;;28.00;90.70;;;;;;5065954;28;20203;-45
2021/11/26 00:20:59;;;;;;;14.48;3.08;;;28.00;90.80;;;;;;5065182;28;20036;-48
2021/11/26 00:23:26;;;;;;;9.00;3.70;;;28.00;90.80;;;;;;5063802;28;20101;-45
2021/11/26 00:25:52;;;;;;;7.53;4.20;;;27.90;90.70;;;;;;5065131;28;20080;-48
2021/11/26 00:28:19;;;;;;;9.60;4.15;;;27.90;90.70;;;;;;5064964;28;20025;-51
2021/11/26 00:30:47;;;;;;;10.98;6.00;;;27.90;90.50;;;;;;5065032;28;20021;-47
2021/11/26 00:33:15;;;;;;;18.05;6.80;;;28.00;90.60;;;;;;5065304;28;20059;-48
2021/11/26 00:35:42;;;;;;;13.88;4.95;;;28.00;90.70;;;;;;5065282;28;20047;-52
2021/11/26 00:38:08;;;;;;;10.80;4.68;;;28.00;90.60;;;;;;5065254;28;20044;-45
2021/11/26 00:40:35;;;;;;;7.90;3.80;;;28.00;90.50;;;;;;5065353;28;20025;-46
2021/11/26 00:43:02;;;;;;;12.25;3.58;;;28.00;90.40;;;;;;5065397;28;20072;-48
2021/11/26 00:45:28;;;;;;;4.53;3.45;;;28.00;90.30;;;;;;5065248;28;20092;-48
2021/11/26 00:47:55;;;;;;;11.98;3.72;;;28.00;90.40;;;;;;5063890;28;20040;-48
2021/11/26 00:50:22;;;;;;;9.00;4.10;;;28.00;90.60;;;;;;5065150;28;20083;-48
2021/11/26 00:53:00;;;;;;;10.98;5.40;;;28.00;90.60;;;;;;5064170;28;20116;-48
2021/11/26 00:55:28;;;;;;;14.60;6.10;;;28.00;90.60;;;;;;5065440;28;20237;-47
2021/11/26 00:57:54;;;;;;;14.60;6.95;;;28.00;90.60;;;;;;5065256;28;20040;-51
2021/11/26 01:00:21;;;;;;;11.13;5.90;;;28.00;90.70;;;;;;5062797;28;20029;-51
2021/11/26 01:02:48;;;;;;;12.80;6.05;;;28.00;90.70;;;;;;5064960;28;20105;-47
2021/11/26 01:05:16;;;;;;;7.95;4.45;;;27.90;90.80;;;;;;5063695;28;20078;-46
2021/11/26 01:07:43;;;;;;;9.15;3.63;;;27.90;90.50;;;;;;5064857;28;20032;-49
2021/11/26 01:10:15;;;;;;;6.28;3.38;;;27.90;90.60;;;;;;5064938;28;20045;-49
2021/11/26 01:12:42;;;;;;;8.02;3.50;;;27.90;90.60;;;;;;5064466;28;20029;-50
2021/11/26 01:15:12;;;;;;;11.13;3.45;;;27.90;90.70;;;;;;5065436;28;20013;-50
2021/11/26 01:17:41;;;;;;;20.38;3.80;;;27.80;90.80;;;;;;5064798;28;20084;-51
2021/11/26 01:20:11;;;;;;;11.18;3.00;;;27.80;90.90;;;;;;5064543;28;20252;-51
2021/11/26 01:22:38;;;;;;;14.88;3.47;;;27.80;90.90;;;;;;5064673;28;20205;-46
2021/11/26 01:25:09;;;;;;;8.68;3.30;;;27.80;91.00;;;;;;5065468;28;20131;-47
2021/11/26 01:27:37;;;;;;;8.60;2.50;;;27.80;90.80;;;;;;5065666;28;20061;-53
2021/11/26 01:30:13;;;;;;;10.60;2.90;;;27.80;90.90;;;;;;5064213;28;20088;-50
2021/11/26 01:32:39;;;;;;;5.40;2.88;;;27.70;90.90;;;;;;5064274;28;20266;-50
2021/11/26 01:35:07;;;;;;;7.38;2.80;;;27.70;91.00;;;;;;5064123;28;20025;-52
2021/11/26 01:37:34;;;;;;;7.03;2.95;;;27.70;91.00;;;;;;5064274;28;20305;-49
2021/11/26 01:40:00;;;;;;;8.60;2.92;;;27.70;91.10;;;;;;5064369;28;20214;-50
2021/11/26 01:42:27;;;;;;;6.47;2.80;;;27.70;91.00;;;;;;5064339;28;20032;-48
2021/11/26 01:44:57;;;;;;;8.10;2.92;;;27.70;91.00;;;;;;5062571;28;20016;-50
2021/11/26 01:47:24;;;;;;;6.93;2.65;;;27.70;91.00;;;;;;5064357;28;20309;-50
2021/11/26 01:49:50;;;;;;;127.80;12.73;;;27.70;90.90;;;;;;5063771;28;20051;-47
2021/11/26 01:52:17;;;;;;;41.63;5.53;;;27.70;90.90;;;;;;5063906;28;20047;-45
2021/11/26 01:54:44;;;;;;;20.17;3.65;;;27.60;90.90;;;;;;5063030;28;20241;-50
2021/11/26 01:57:11;;;;;;;13.88;3.00;;;27.70;90.90;;;;;;5064495;28;20028;-50
2021/11/26 01:59:37;;;;;;;9.43;2.70;;;27.70;90.80;;;;;;5063678;28;20016;-47
2021/11/26 02:02:04;;;;;;;14.23;2.95;;;27.70;90.80;;;;;;5064144;28;20028;-47
2021/11/26 02:04:31;;;;;;;7.82;2.47;;;27.70;90.90;;;;;;5063159;28;20071;-45
2021/11/26 02:06:57;;;;;;;8.73;2.30;;;27.60;91.00;;;;;;5060944;28;20029;-48
2021/11/26 02:09:24;;;;;;;7.00;2.20;;;27.60;91.00;;;;;;5063034;28;20045;-48
2021/11/26 02:11:51;;;;;;;8.82;2.58;;;27.60;91.00;;;;;;5063639;28;20218;-46
2021/11/26 02:14:17;;;;;;;7.53;2.70;;;27.60;91.00;;;;;;5062549;28;20025;-50
2021/11/26 02:16:46;;;;;;;4.38;2.03;;;27.70;90.70;;;;;;5063245;28;20029;-50
2021/11/26 02:19:15;;;;;;;4.25;1.90;;;27.70;90.60;;;;;;5063611;28;20256;-53
2021/11/26 02:21:42;;;;;;;6.72;1.90;;;27.80;90.60;;;;;;5063634;28;20021;-51
2021/11/26 02:24:11;;;;;;;6.80;2.38;;;27.80;90.50;;;;;;5062359;28;20025;-46
2021/11/26 02:26:41;;;;;;;12.57;6.38;;;27.80;90.40;;;;;;5061690;28;20025;-49
2021/11/26 02:29:09;;;;;;;11.65;7.78;;;27.80;90.40;;;;;;5061556;28;20084;-53
2021/11/26 02:31:37;;;;;;;12.30;7.28;;;27.80;90.30;;;;;;5061114;28;20305;-50
2021/11/26 02:34:03;;;;;;;12.55;6.25;;;27.80;90.20;;;;;;5061492;28;20025;-53
2021/11/26 02:36:30;;;;;;;10.27;6.80;;;27.80;90.20;;;;;;5061876;28;20028;-51
2021/11/26 02:38:57;;;;;;;10.52;7.68;;;27.80;90.20;;;;;;5062458;28;20020;-50
2021/11/26 02:41:24;;;;;;;21.50;5.75;;;27.90;90.30;;;;;;5063580;28;20024;-49
2021/11/26 02:43:51;;;;;;;13.07;4.55;;;27.80;90.20;;;;;;5063557;28;20040;-50
2021/11/26 02:46:18;;;;;;;8.50;3.47;;;27.80;90.20;;;;;;5063393;28;20028;-48
2021/11/26 02:48:49;;;;;;;6.07;3.55;;;27.80;90.20;;;;;;5063655;28;20009;-48
2021/11/26 02:51:22;;;;;;;6.25;3.60;;;27.80;90.10;;;;;;5062879;28;20032;-47
2021/11/26 02:53:49;;;;;;;8.70;3.42;;;27.80;90.20;;;;;;5062631;28;20024;-56
2021/11/26 02:56:16;;;;;;;7.10;2.70;;;27.80;90.10;;;;;;5063618;28;20071;-47
2021/11/26 02:58:46;;;;;;;7.18;2.97;;;27.80;90.10;;;;;;5063967;28;20024;-48
2021/11/26 03:01:13;;;;;;;6.05;2.33;;;27.80;90.10;;;;;;5063598;28;20043;-48
2021/11/26 03:03:39;;;;;;;4.60;2.58;;;27.80;90.10;;;;;;5063586;28;20021;-48
2021/11/26 03:06:07;;;;;;;7.80;2.95;;;27.80;90.10;;;;;;5063668;28;20025;-53
2021/11/26 03:08:36;;;;;;;9.40;3.05;;;27.80;90.00;;;;;;5062187;28;20053;-52
2021/11/26 03:11:05;;;;;;;7.65;3.50;;;27.80;90.00;;;;;;5063203;28;20021;-45
2021/11/26 03:13:32;;;;;;;7.38;3.78;;;27.80;89.80;;;;;;5063028;28;20028;-46
2021/11/26 03:15:59;;;;;;;5.97;3.30;;;27.80;90.00;;;;;;5063187;28;20013;-48
2021/11/26 03:18:28;;;;;;;6.38;3.70;;;27.80;89.90;;;;;;5063524;28;20182;-46
2021/11/26 03:20:58;;;;;;;7.28;3.47;;;27.70;89.90;;;;;;5063070;28;20027;-46
2021/11/26 03:23:26;;;;;;;5.57;3.20;;;27.70;89.80;;;;;;5063115;28;20130;-48
2021/11/26 03:25:53;;;;;;;7.05;2.55;;;27.70;89.80;;;;;;5066903;28;20012;-45
2021/11/26 03:28:20;;;;;;;9.00;2.35;;;27.70;89.60;;;;;;5066578;28;20017;-46
2021/11/26 03:30:48;;;;;;;3.55;2.15;;;27.70;89.70;;;;;;5066335;28;20024;-50
2021/11/26 03:33:16;;;;;;;6.90;2.22;;;27.70;89.70;;;;;;5065370;28;20092;-46
2021/11/26 03:35:43;;;;;;;5.07;2.17;;;27.70;89.80;;;;;;5066434;28;20017;-49
2021/11/26 03:38:09;;;;;;;5.13;2.42;;;27.70;89.80;;;;;;5066473;28;20027;-46
2021/11/26 03:40:36;;;;;;;3.88;2.05;;;27.60;89.60;;;;;;5066541;28;20017;-45
2021/11/26 03:43:03;;;;;;;26.83;2.80;;;27.70;89.90;;;;;;5066744;28;20036;-51
2021/11/26 03:45:31;;;;;;;7.30;2.40;;;27.60;90.00;;;;;;5066208;28;20017;-46
2021/11/26 03:47:58;;;;;;;4.28;2.08;;;27.60;90.00;;;;;;5066634;28;20029;-48
2021/11/26 03:50:27;;;;;;;5.10;1.92;;;27.60;89.70;;;;;;5065909;28;20135;-50
2021/11/26 03:52:54;;;;;;;8.85;2.50;;;27.60;89.60;;;;;;5066502;28;20048;-51
2021/11/26 03:55:24;;;;;;;7.35;2.08;;;27.60;89.70;;;;;;5066169;28;20027;-45
2021/11/26 03:57:52;;;;;;;4.80;2.30;;;27.60;89.90;;;;;;5066541;28;20093;-49
2021/11/26 04:00:19;;;;;;;8.75;2.30;;;27.60;89.90;;;;;;5065726;28;20363;-47
2021/11/26 04:02:46;;;;;;;4.95;1.98;;;27.60;89.90;;;;;;5066328;28;20212;-45
2021/11/26 04:05:14;;;;;;;4.45;2.30;;;27.60;89.80;;;;;;5065689;28;20343;-49
2021/11/26 04:07:40;;;;;;;7.60;2.50;;;27.60;89.60;;;;;;5065661;28;20033;-49
2021/11/26 04:10:11;;;;;;;6.40;2.40;;;27.60;89.70;;;;;;5065472;28;20112;-49
2021/11/26 04:12:39;;;;;;;8.05;2.90;;;27.60;89.70;;;;;;5065907;28;20071;-48
2021/11/26 04:15:07;;;;;;;8.50;3.75;;;27.50;89.70;;;;;;5065615;28;20013;-51
2021/11/26 04:17:35;;;;;;;13.95;4.57;;;27.50;89.60;;;;;;5066260;28;20032;-49
2021/11/26 04:20:03;;;;;;;9.02;4.03;;;27.50;89.60;;;;;;5065278;28;20025;-50
2021/11/26 04:22:29;;;;;;;5.93;3.40;;;27.50;89.60;;;;;;5065962;28;20025;-50
2021/11/26 04:24:56;;;;;;;6.28;2.80;;;27.50;89.60;;;;;;5065419;28;20040;-54
2021/11/26 04:27:23;;;;;;;8.73;2.60;;;27.50;89.60;;;;;;5065606;28;20036;-44
2021/11/26 04:29:50;;;;;;;4.90;2.50;;;27.50;89.70;;;;;;5065402;28;20212;-49
2021/11/26 04:32:16;;;;;;;5.90;2.72;;;27.50;89.50;;;;;;5065684;28;20241;-52
2021/11/26 04:34:44;;;;;;;4.72;2.22;;;27.40;89.40;;;;;;5065077;28;20021;-51
2021/11/26 04:37:10;;;;;;;4.45;2.13;;;27.40;89.30;;;;;;5065537;28;20021;-53
2021/11/26 04:39:40;;;;;;;5.95;2.00;;;27.40;89.50;;;;;;5065146;28;20040;-47
2021/11/26 04:42:08;;;;;;;4.07;2.17;;;27.40;89.50;;;;;;5065298;28;20025;-49
2021/11/26 04:44:35;;;;;;;6.35;2.03;;;27.50;89.60;;;;;;5065093;28;20017;-52
2021/11/26 04:47:02;;;;;;;5.85;2.03;;;27.40;89.40;;;;;;5065242;28;20051;-50
2021/11/26 04:49:31;;;;;;;5.90;1.70;;;27.40;89.40;;;;;;5064795;28;20027;-49
2021/11/26 04:51:58;;;;;;;3.00;1.77;;;27.40;90.00;;;;;;5065172;28;20309;-49
2021/11/26 04:54:25;;;;;;;5.18;1.90;;;27.30;89.20;;;;;;5064926;28;20016;-48
2021/11/26 04:56:51;;;;;;;4.63;1.90;;;27.30;89.10;;;;;;5064943;28;20071;-51
2021/11/26 04:59:18;;;;;;;2.80;1.67;;;27.30;89.00;;;;;;5064914;28;20059;-54
2021/11/26 05:01:44;;;;;;;6.18;1.80;;;27.40;89.00;;;;;;5064951;28;20021;-47
2021/11/26 05:04:11;;;;;;;6.78;2.03;;;27.30;89.10;;;;;;5065232;28;20028;-46
2021/11/26 05:06:38;;;;;;;7.95;1.77;;;27.30;89.20;;;;;;5065241;28;20084;-50
2021/11/26 05:09:06;;;;;;;4.20;1.70;;;27.30;89.20;;;;;;5064430;28;20044;-50
2021/11/26 05:11:35;;;;;;;6.85;1.80;;;27.30;89.00;;;;;;5064553;28;20213;-47
2021/11/26 05:14:03;;;;;;;4.65;1.73;;;27.30;89.00;;;;;;5063386;28;20183;-56
2021/11/26 05:16:31;;;;;;;8.27;1.88;;;27.30;89.00;;;;;;5064633;28;20040;-47
2021/11/26 05:18:59;;;;;;;5.05;1.92;;;27.30;89.00;;;;;;5064391;28;20017;-50
2021/11/26 05:21:25;;;;;;;5.18;1.70;;;27.30;89.00;;;;;;5064615;28;20057;-54
2021/11/26 05:23:53;;;;;;;4.00;1.65;;;27.30;89.10;;;;;;5064418;28;20079;-54
2021/11/26 05:26:23;;;;;;;4.47;1.52;;;27.20;88.90;;;;;;5064350;28;20093;-50
2021/11/26 05:28:51;;;;;;;5.00;1.75;;;27.20;88.90;;;;;;5064377;28;20067;-51
2021/11/26 05:31:19;;;;;;;2.45;1.45;;;27.20;88.80;;;;;;5064399;28;20024;-52
2021/11/26 05:33:49;;;;;;;2.65;1.50;;;27.20;88.80;;;;;;5064104;28;20017;-52
2021/11/26 05:36:16;;;;;;;7.07;1.60;;;27.20;88.90;;;;;;5064348;28;20044;-46
2021/11/26 05:38:43;;;;;;;4.35;1.60;;;27.20;88.90;;;;;;5064245;28;20313;-49
2021/11/26 05:41:10;;;;;;;4.15;1.73;;;27.20;89.00;;;;;;5064163;28;20033;-49
2021/11/26 05:43:36;;;;;;;3.05;1.58;;;27.20;89.00;;;;;;5064164;28;20021;-46
2021/11/26 05:46:03;;;;;;;3.88;1.60;;;27.20;89.00;;;;;;5063627;28;20025;-53
2021/11/26 05:48:30;;;;;;;4.13;1.80;;;27.20;88.90;;;;;;5063926;28;20013;-49
2021/11/26 05:50:57;;;;;;;6.93;1.90;;;27.20;88.90;;;;;;5062655;28;20021;-51
2021/11/26 05:53:23;;;;;;;4.60;1.83;;;27.10;88.80;;;;;;5063987;28;20019;-49
2021/11/26 05:55:50;;;;;;;5.43;1.80;;;27.10;88.80;;;;;;5063882;28;20171;-52
2021/11/26 05:58:17;;;;;;;3.58;1.58;;;27.10;88.80;;;;;;5063855;28;20067;-50
2021/11/26 06:00:43;;;;;;;5.15;1.70;;;27.10;88.70;;;;;;5062666;28;20087;-47
2021/11/26 06:03:10;;;;;;;4.90;1.80;;;27.10;88.90;;;;;;5063694;28;20367;-55
2021/11/26 06:05:36;;;;;;;3.03;1.50;;;27.10;88.60;;;;;;5063867;28;20024;-50
2021/11/26 06:08:03;;;;;;;5.20;1.63;;;27.10;88.60;;;;;;5064275;28;20049;-50
2021/11/26 06:10:30;;;;;;;1.60;1.50;;;27.10;88.60;;;;;;5063447;28;20108;-47
2021/11/26 06:12:56;;;;;;;3.83;1.35;;;27.10;88.50;;;;;;5064223;28;20033;-46
2021/11/26 06:15:23;;;;;;;1.90;1.30;;;27.10;88.50;;;;;;5063531;28;20194;-49
2021/11/26 06:17:50;;;;;;;3.53;1.65;;;27.10;88.50;;;;;;5063751;28;20025;-50
2021/11/26 06:20:19;;;;;;;5.78;1.95;;;27.10;88.60;;;;;;5063772;28;20025;-51
2021/11/26 06:22:46;;;;;;;4.80;1.80;;;27.10;88.70;;;;;;5064127;28;20024;-53
2021/11/26 06:25:17;;;;;;;3.63;1.42;;;27.00;88.80;;;;;;5063529;28;20021;-47
2021/11/26 06:27:45;;;;;;;2.88;1.45;;;27.00;89.00;;;;;;5064157;28;20033;-50
2021/11/26 06:30:13;;;;;;;2.30;1.70;;;27.00;88.80;;;;;;5063873;28;20225;-49
2021/11/26 06:32:42;;;;;;;4.63;1.58;;;27.00;88.80;;;;;;5063965;28;20017;-49
2021/11/26 06:35:10;;;;;;;4.10;1.80;;;27.00;88.90;;;;;;5063681;28;20031;-51
2021/11/26 06:37:37;;;;;;;6.22;1.98;;;27.00;88.90;;;;;;5063475;28;20084;-50
2021/11/26 06:40:05;;;;;;;2.45;1.50;;;27.00;89.00;;;;;;5063407;28;20070;-47
2021/11/26 06:42:35;;;;;;;7.20;1.83;;;27.00;89.10;;;;;;5063949;28;20106;-49
2021/11/26 06:45:03;;;;;;;3.70;1.52;;;27.00;89.10;;;;;;5063468;28;20056;-49
2021/11/26 06:47:32;;;;;;;3.88;1.63;;;27.00;89.10;;;;;;5063655;28;20032;-50
2021/11/26 06:50:04;;;;;;;2.60;1.70;;;27.00;88.90;;;;;;5063251;28;20044;-47
2021/11/26 06:52:31;;;;;;;5.45;1.67;;;27.00;88.90;;;;;;5063136;28;20025;-47
2021/11/26 06:55:07;;;;;;;4.30;1.70;;;27.00;88.90;;;;;;5063333;28;20024;-48
2021/11/26 06:57:39;;;;;;;6.57;1.80;;;27.00;89.00;;;;;;5063712;28;20028;-47
2021/11/26 07:00:14;;;;;;;3.97;1.73;;;26.90;88.90;;;;;;5066762;28;20040;-46
2021/11/26 07:02:40;;;;;;;4.50;1.70;;;26.90;89.10;;;;;;5067460;28;20052;-47
2021/11/26 07:05:14;;;;;;;3.95;1.77;;;26.90;89.00;;;;;;5067035;28;20202;-51
2021/11/26 07:07:41;;;;;;;3.78;1.65;;;26.90;89.00;;;;;;5067416;28;20021;-46
2021/11/26 07:10:15;;;;;;;6.88;1.73;;;26.90;89.10;;;;;;5066836;28;20329;-57
2021/11/26 07:12:44;;;;;;;5.43;1.88;;;26.90;89.10;;;;;;5067268;28;20031;-47
2021/11/26 07:15:13;;;;;;;5.28;2.20;;;26.90;89.00;;;;;;5065737;28;20104;-45
2021/11/26 07:17:46;;;;;;;6.40;1.95;;;26.90;89.20;;;;;;5067482;28;20025;-48
2021/11/26 07:20:22;;;;;;;5.07;1.67;;;26.90;89.20;;;;;;5066825;28;20013;-47
2021/11/26 07:22:55;;;;;;;6.05;2.05;;;26.90;89.30;;;;;;5067247;28;20092;-48
2021/11/26 07:25:24;;;;;;;;;;;26.90;89.30;;;;;;5066979;28;20028;-50
2021/11/26 07:27:50;;;;;;;5.88;1.92;;;26.90;89.20;;;;;;5067115;28;19908;-50
2021/11/26 07:30:17;;;;;;;5.38;1.88;;;26.80;89.00;;;;;;5066541;28;20024;-47
2021/11/26 07:32:44;;;;;;;3.90;1.90;;;26.80;89.00;;;;;;5066913;28;20075;-48
2021/11/26 07:35:12;;;;;;;5.55;1.70;;;26.90;88.90;;;;;;5066474;28;20017;-49
2021/11/26 07:37:39;;;;;;;7.75;2.10;;;26.80;88.90;;;;;;5066866;28;20297;-48
2021/11/26 07:40:08;;;;;;;7.80;1.80;;;26.80;88.80;;;;;;5066345;28;20021;-48
2021/11/26 07:42:35;;;;;;;4.88;1.65;;;26.80;88.80;;;;;;5066777;28;20029;-50
2021/11/26 07:45:11;;;;;;;7.13;1.75;;;26.80;88.80;;;;;;5066420;28;20025;-57
2021/11/26 07:47:43;;;;;;;6.18;2.10;;;26.80;89.00;;;;;;5066961;28;20070;-48
2021/11/26 07:50:19;;;;;;;7.00;1.90;;;26.80;89.10;;;;;;5066324;28;20220;-46
2021/11/26 07:52:48;;;;;;;4.10;1.70;;;26.80;89.00;;;;;;5066817;28;20202;-49
2021/11/26 07:55:21;;;;;;;5.03;1.50;;;26.70;88.90;;;;;;5066292;28;20013;-51
2021/11/26 07:57:47;;;;;;;;;;;26.70;89.00;;;;;;5066898;28;20028;-48
2021/11/26 08:00:15;;;;;;;4.47;1.70;;;26.70;89.00;;;;;;5066189;28;19901;-54
2021/11/26 08:02:42;;;;;;;4.65;1.88;;;26.70;89.20;;;;;;5066443;28;20332;-57
2021/11/26 08:05:09;;;;;;;8.32;1.85;;;26.70;89.30;;;;;;5065732;28;20021;-51
2021/11/26 08:07:37;;;;;;;8.00;1.67;;;26.70;89.40;;;;;;5066261;28;20032;-54
2021/11/26 08:10:08;;;;;;;2.53;1.52;;;26.70;89.40;;;;;;5065134;28;20050;-50
2021/11/26 08:12:39;;;;;;;7.80;1.85;;;26.70;89.30;;;;;;5065960;28;20248;-50
2021/11/26 08:15:09;;;;;;;7.15;1.55;;;26.60;89.20;;;;;;5065746;28;20332;-56
2021/11/26 08:17:39;;;;;;;3.83;1.60;;;26.60;89.20;;;;;;5066109;28;20088;-52
2021/11/26 08:20:08;;;;;;;2.83;1.45;;;26.60;89.20;;;;;;5065605;28;20025;-48
2021/11/26 08:22:38;;;;;;;7.43;1.63;;;26.60;89.00;;;;;;5065932;28;20033;-50
2021/11/26 08:25:15;;;;;;;6.35;1.85;;;26.60;89.00;;;;;;5065355;28;20021;-49
2021/11/26 08:27:42;;;;;;;3.55;1.55;;;26.60;88.80;;;;;;5066006;28;20025;-51
2021/11/26 08:30:10;;;;;;;3.47;1.50;;;26.60;89.00;;;;;;5065431;28;20024;-50
2021/11/26 08:32:37;;;;;;;3.47;1.40;;;26.70;89.00;;;;;;5065624;28;20039;-52
2021/11/26 08:35:07;;;;;;;7.57;1.70;;;26.60;88.90;;;;;;5065250;28;20017;-49
2021/11/26 08:37:44;;;;;;;;;;;;;;;;;;;;;
2021/11/26 08:40:11;;;;;;;2.58;1.50;;;26.60;88.80;;;;;;5061952;28;20057;-53
2021/11/26 08:42:38;;;;;;;4.40;1.60;;;26.70;89.00;;;;;;5065518;28;20102;-49
2021/11/26 08:45:05;;;;;;;3.55;1.75;;;26.70;89.10;;;;;;5065061;28;20209;-52
2021/11/26 08:47:32;;;;;;;5.78;1.70;;;26.60;89.10;;;;;;5065618;28;20031;-47
2021/11/26 08:50:00;;;;;;;5.68;1.73;;;26.60;89.30;;;;;;5065052;28;20021;-48
2021/11/26 08:52:30;;;;;;;4.57;1.63;;;26.60;89.50;;;;;;5065125;28;20025;-47
2021/11/26 08:54:57;;;;;;;5.95;1.80;;;26.60;89.50;;;;;;5065010;28;20200;-52
2021/11/26 08:57:28;;;;;;;4.43;1.80;;;26.60;89.60;;;;;;5065299;28;20029;-47
2021/11/26 08:59:55;;;;;;;3.10;1.60;;;26.60;89.70;;;;;;5064709;28;20062;-48
2021/11/26 09:02:22;;;;;;;6.90;1.77;;;26.60;89.60;;;;;;5065352;28;20033;-47
2021/11/26 09:04:48;;;;;;;3.88;1.92;;;26.60;89.70;;;;;;5064802;28;20039;-52
2021/11/26 09:07:15;;;;;;;6.50;2.00;;;26.60;89.80;;;;;;5065006;28;20134;-52
2021/11/26 09:09:44;;;;;;;6.03;2.15;;;26.60;90.00;;;;;;5064553;28;20048;-52
2021/11/26 09:12:11;;;;;;;5.50;1.60;;;26.60;90.00;;;;;;5065011;28;20060;-48
2021/11/26 09:14:38;;;;;;;5.07;1.60;;;26.60;90.00;;;;;;5064568;28;20017;-53
2021/11/26 09:17:05;;;;;;;4.45;1.67;;;26.60;90.00;;;;;;5064774;28;20033;-52
2021/11/26 09:19:32;;;;;;;4.15;1.60;;;26.60;90.00;;;;;;5064674;28;20020;-50
2021/11/26 09:22:19;;;;;;;2.83;1.70;;;26.60;90.00;;;;;;5063793;28;20033;-51
2021/11/26 09:24:46;;;;;;;2.78;1.65;;;26.60;90.00;;;;;;5064066;28;20324;-51
2021/11/26 09:27:15;;;;;;;5.28;1.83;;;26.60;90.00;;;;;;5064531;28;20092;-49
2021/11/26 09:29:45;;;;;;;4.43;1.70;;;26.60;90.00;;;;;;5064290;28;20024;-52
2021/11/26 09:32:19;;;;;;;4.45;1.70;;;26.60;90.00;;;;;;5064663;28;20311;-50
2021/11/26 09:34:46;;;;;;;4.30;1.65;;;26.60;90.10;;;;;;5064093;28;20017;-51
2021/11/26 09:37:13;;;;;;;5.57;1.83;;;26.60;90.10;;;;;;5064484;28;20029;-51
2021/11/26 09:39:39;;;;;;;5.03;1.95;;;26.60;90.10;;;;;;5064283;28;20082;-53
2021/11/26 09:42:06;;;;;;;7.40;1.88;;;26.60;90.00;;;;;;5064171;28;20032;-51
2021/11/26 09:44:39;;;;;;;4.90;1.80;;;26.60;90.10;;;;;;5064202;28;20021;-48
2021/11/26 09:47:07;;;;;;;4.53;1.60;;;26.60;90.10;;;;;;5064249;28;20390;-51
2021/11/26 09:49:33;;;;;;;3.45;1.67;;;26.60;90.00;;;;;;5063903;28;20027;-51
2021/11/26 09:52:00;;;;;;;2.90;1.50;;;26.60;90.10;;;;;;5064010;28;20035;-46
2021/11/26 09:54:30;;;;;;;4.35;1.60;;;26.60;90.10;;;;;;5062955;28;20013;-50
2021/11/26 09:56:57;;;;;;;7.75;1.70;;;26.60;90.10;;;;;;5064113;28;20070;-59
2021/11/26 09:59:23;;;;;;;9.20;2.17;;;26.60;90.10;;;;;;5063889;28;20088;-57
2021/11/26 10:01:50;;;;;;;2.83;1.90;;;26.60;90.10;;;;;;5064093;28;20333;-52
2021/11/26 10:04:19;;;;;;;5.65;1.85;;;26.60;90.10;;;;;;5063722;28;20024;-53
2021/11/26 10:06:47;;;;;;;5.07;2.00;;;26.60;90.10;;;;;;5064085;28;20029;-51
2021/11/26 10:09:24;;;;;;;2.95;1.85;;;26.60;90.10;;;;;;5063525;28;20048;-52
2021/11/26 10:12:10;;;;;;;4.95;2.03;;;26.60;90.10;;;;;;5063819;28;20376;-54
2021/11/26 10:14:43;;;;;;;6.18;2.05;;;26.60;90.10;;;;;;5063606;28;20023;-54
2021/11/26 10:17:13;;;;;;;5.40;2.03;;;26.60;90.10;;;;;;5064011;28;20232;-52
2021/11/26 10:19:46;;;;;;;5.05;2.08;;;26.60;90.00;;;;;;5063663;28;20030;-54
2021/11/26 10:22:14;;;;;;;8.75;2.20;;;26.60;90.00;;;;;;5063839;28;20041;-58
2021/11/26 10:24:41;;;;;;;5.70;2.10;;;26.60;90.00;;;;;;5063611;28;20021;-52
2021/11/26 10:27:08;;;;;;;4.63;2.28;;;26.60;89.90;;;;;;5063806;28;20302;-53
2021/11/26 10:29:42;;;;;;;10.95;2.20;;;26.60;90.20;;;;;;5063469;28;20237;-52
2021/11/26 10:32:17;;;;;;;6.78;2.20;;;26.60;89.80;;;;;;5064567;28;20292;-55
2021/11/26 10:34:50;;;;;;;5.35;2.35;;;26.60;89.80;;;;;;5067431;28;20013;-53
2021/11/26 10:37:27;;;;;;;3.72;2.00;;;26.60;89.80;;;;;;5067829;28;20025;-51
2021/11/26 10:39:54;;;;;;;4.57;1.90;;;26.50;89.50;;;;;;5067468;28;20059;-53
2021/11/26 10:42:28;;;;;;;7.47;2.20;;;26.50;89.70;;;;;;5067698;28;20348;-50
2021/11/26 10:45:06;;;;;;;5.68;2.28;;;26.50;89.60;;;;;;5067357;28;20131;-52
2021/11/26 10:50:58;;;;;;;3.83;1.70;;;26.50;89.60;;;;;;5029647;28;20329;-48
2021/11/26 10:59:03;;;;;;;5.80;2.05;;;26.50;89.70;;;;;;5066882;28;20047;-53
2021/11/26 11:01:44;;;;;;;6.65;2.42;;;26.50;89.70;;;;;;5067048;28;20032;-57
2021/11/26 11:04:15;;;;;;;4.30;2.35;;;26.50;89.70;;;;;;5066887;28;20084;-55
2021/11/26 11:06:44;;;;;;;7.85;3.47;;;26.50;90.00;;;;;;5067060;28;20043;-50
2021/11/26 11:09:12;;;;;;;14.15;3.70;;;26.50;90.00;;;;;;5066684;28;20198;-56
2021/11/26 11:11:57;;;;;;;9.15;4.10;;;26.50;90.00;;;;;;5065548;28;20187;-51
2021/11/26 11:14:26;;;;;;;6.30;3.47;;;26.50;90.10;;;;;;5066698;28;20066;-53
2021/11/26 11:16:56;;;;;;;7.13;3.15;;;26.50;90.30;;;;;;5066947;28;20025;-52
2021/11/26 11:19:24;;;;;;;7.60;3.45;;;26.50;90.30;;;;;;5066706;28;20017;-51
2021/11/26 11:21:53;;;;;;;7.93;3.00;;;26.50;90.30;;;;;;5067106;28;20052;-55
2021/11/26 11:24:20;;;;;;;6.05;2.80;;;26.50;90.50;;;;;;5067036;28;20027;-54
2021/11/26 11:26:49;;;;;;;9.50;3.33;;;26.50;90.40;;;;;;5066873;28;20071;-54
2021/11/26 11:29:22;;;;;;;7.53;3.33;;;26.50;90.40;;;;;;5066543;28;20316;-53
2021/11/26 11:31:50;;;;;;;13.27;3.35;;;26.60;90.40;;;;;;5066761;28;20232;-52
2021/11/26 11:34:21;;;;;;;16.67;3.20;;;26.60;90.50;;;;;;5066453;28;20328;-48
2021/11/26 11:36:54;;;;;;;9.63;3.07;;;26.50;90.40;;;;;;5066343;28;20321;-47
2021/11/26 11:39:21;;;;;;;8.70;2.80;;;26.60;90.50;;;;;;5066375;28;20027;-50
2021/11/26 11:41:57;;;;;;;10.25;2.75;;;26.50;90.50;;;;;;5066466;28;20412;-48
2021/11/26 11:44:33;;;;;;;5.78;2.75;;;26.60;90.50;;;;;;5065422;28;20198;-53
2021/11/26 11:47:17;;;;;;;9.30;3.33;;;26.60;90.40;;;;;;5065193;28;20210;-55
2021/11/26 11:49:43;;;;;;;8.98;3.47;;;26.60;90.40;;;;;;5066136;28;20017;-49
2021/11/26 11:52:12;;;;;;;9.23;3.28;;;26.60;90.30;;;;;;5064085;28;20086;-46
2021/11/26 11:54:47;;;;;;;6.70;2.78;;;26.60;90.30;;;;;;5065632;28;20076;-52
2021/11/26 11:57:25;;;;;;;7.45;3.13;;;26.60;90.30;;;;;;5064946;28;20035;-50
2021/11/26 12:00:06;;;;;;;7.50;2.70;;;26.60;90.20;;;;;;5065766;28;20021;-49
2021/11/26 20:36:47;;;;;;;15.48;4.13;;;29.60;82.90;;;;;;5101204;27;20451;-49
2021/11/26 20:39:18;;;;;;;10.02;3.50;;;29.80;85.80;;;;;;5100433;28;20333;-45
2021/11/26 20:41:45;;;;;;;13.10;3.28;;;29.80;85.40;;;;;;5101354;28;20035;-44
2021/11/26 20:44:16;;;;;;;13.18;2.83;;;29.70;85.60;;;;;;5100973;28;20093;-60
2021/11/26 20:46:43;;;;;;;6.63;2.42;;;29.40;86.40;;;;;;5101955;28;20016;-65
2021/11/26 20:49:11;;;;;;;5.00;2.40;;;29.20;86.80;;;;;;5101908;28;20024;-67
2021/11/26 20:51:39;;;;;;;6.20;1.77;;;29.10;87.40;;;;;;5101608;28;20032;-61
2021/11/26 20:54:08;;;;;;;3.17;1.45;;;28.90;87.40;;;;;;5101023;28;20024;-61
2021/11/26 20:56:35;;;;;;;3.85;1.65;;;28.80;87.30;;;;;;5100842;28;20312;-58
2021/11/26 20:59:02;;;;;;;5.32;1.50;;;28.60;87.40;;;;;;5100870;28;20035;-58
2021/11/26 21:01:29;;;;;;;7.75;1.42;;;28.50;87.40;;;;;;5101207;28;20016;-60
2021/11/26 21:03:56;;;;;;;14.82;1.70;;;28.50;87.60;;;;;;5100598;28;20016;-63
2021/11/26 21:06:24;;;;;;;3.30;1.60;;;28.40;88.40;;;;;;5101555;28;20038;-65
2021/11/26 21:08:50;;;;;;;9.55;1.75;;;28.50;89.70;;;;;;5100947;28;20012;-49
2021/11/26 21:11:20;;;;;;;2.88;1.80;;;28.50;90.00;;;;;;5099331;28;20016;-52
2021/11/26 21:13:47;;;;;;;6.35;2.22;;;28.60;89.40;;;;;;5099191;28;20300;-55
2021/11/26 21:16:13;;;;;;;7.63;2.00;;;28.70;89.60;;;;;;5101585;28;20032;-60
2021/11/26 21:18:46;;;;;;;12.55;3.30;;;28.70;90.00;;;;;;5084344;28;20021;-55
2021/11/26 21:21:16;;;;;;;12.52;2.97;;;28.70;90.20;;;;;;5100501;28;20024;-48
2021/11/26 21:23:47;;;;;;;15.73;2.85;;;28.80;90.10;;;;;;5100671;28;20189;-45
2021/11/26 21:26:23;;;;;;;8.35;2.45;;;28.90;90.00;;;;;;5099145;28;20318;-51
2021/11/26 21:28:55;;;;;;;9.60;2.20;;;29.00;89.60;;;;;;5100199;28;20012;-53
2021/11/26 21:31:24;;;;;;;10.98;2.30;;;29.10;88.80;;;;;;5098545;28;20020;-54
2021/11/26 21:33:55;;;;;;;7.80;2.50;;;29.10;88.90;;;;;;5098402;28;20084;-57
2021/11/26 21:36:28;;;;;;;9.65;2.55;;;29.10;88.70;;;;;;5092110;28;20041;-56
2021/11/26 21:38:57;;;;;;;6.57;2.60;;;29.20;89.00;;;;;;5084951;28;20017;-50